sensor_id;sensor_type;location;lat;lon;timestamp;temperature;humidity
20915;DHT22;10617;52.032;5.298;2022-07-23T00:01:10;17.50;99.90
20915;DHT22;10617;52.032;5.298;2022-07-23T00:05:12;17.50;99.90
20915;DHT22;10617;52.032;5.298;2022-07-23T00:09:14;17.40;99.90
20915;DHT22;10617;52.032;5.298;2022-07-23T00:13:15;17.40;99.90
20915;DHT22;10617;52.032;5.298;2022-07-23T00:17:17;17.30;99.90
20915;DHT22;10617;52.032;5.298;2022-07-23T00:21:19;17.30;99.90
20915;DHT22;10617;52.032;5.298;2022-07-23T00:25:21;17.20;99.90
20915;DHT22;10617;52.032;5.298;2022-07-23T00:29:29;17.20;99.90
20915;DHT22;10617;52.032;5.298;2022-07-23T00:33:31;17.20;99.90
20915;DHT22;10617;52.032;5.298;2022-07-23T00:37:32;17.10;99.90
20915;DHT22;10617;52.032;5.298;2022-07-23T00:41:34;17.10;99.90
20915;DHT22;10617;52.032;5.298;2022-07-23T00:50:39;17.10;99.90
20915;DHT22;10617;52.032;5.298;2022-07-23T00:54:41;17.00;99.90
20915;DHT22;10617;52.032;5.298;2022-07-23T00:58:42;17.00;99.90
20915;DHT22;10617;52.032;5.298;2022-07-23T01:02:44;17.00;99.90
20915;DHT22;10617;52.032;5.298;2022-07-23T01:06:46;16.90;99.90
20915;DHT22;10617;52.032;5.298;2022-07-23T01:10:48;16.90;99.90
20915;DHT22;10617;52.032;5.298;2022-07-23T01:14:53;16.90;99.90
20915;DHT22;10617;52.032;5.298;2022-07-23T01:18:55;16.90;99.90
20915;DHT22;10617;52.032;5.298;2022-07-23T01:22:57;16.80;99.90
20915;DHT22;10617;52.032;5.298;2022-07-23T01:26:59;16.80;99.90
20915;DHT22;10617;52.032;5.298;2022-07-23T01:31:01;16.80;99.90
20915;DHT22;10617;52.032;5.298;2022-07-23T01:35:02;16.80;99.90
20915;DHT22;10617;52.032;5.298;2022-07-23T01:39:04;16.70;99.90
20915;DHT22;10617;52.032;5.298;2022-07-23T01:43:06;16.70;99.90
20915;DHT22;10617;52.032;5.298;2022-07-23T01:47:08;16.60;99.90
20915;DHT22;10617;52.032;5.298;2022-07-23T01:51:10;16.60;99.90
20915;DHT22;10617;52.032;5.298;2022-07-23T01:55:11;16.50;99.90
20915;DHT22;10617;52.032;5.298;2022-07-23T01:59:18;16.50;99.90
20915;DHT22;10617;52.032;5.298;2022-07-23T02:03:20;16.40;99.90
20915;DHT22;10617;52.032;5.298;2022-07-23T02:07:22;16.40;99.90
20915;DHT22;10617;52.032;5.298;2022-07-23T02:11:23;16.30;99.90
20915;DHT22;10617;52.032;5.298;2022-07-23T02:15:25;16.30;99.90
20915;DHT22;10617;52.032;5.298;2022-07-23T02:19:27;16.20;99.90
20915;DHT22;10617;52.032;5.298;2022-07-23T02:23:28;16.20;99.90
20915;DHT22;10617;52.032;5.298;2022-07-23T02:27:30;16.10;99.90
20915;DHT22;10617;52.032;5.298;2022-07-23T02:31:32;16.10;99.90
20915;DHT22;10617;52.032;5.298;2022-07-23T02:35:34;16.00;99.90
20915;DHT22;10617;52.032;5.298;2022-07-23T02:39:35;16.00;99.90
20915;DHT22;10617;52.032;5.298;2022-07-23T02:43:37;15.90;99.90
20915;DHT22;10617;52.032;5.298;2022-07-23T02:47:39;15.90;99.90
20915;DHT22;10617;52.032;5.298;2022-07-23T02:51:40;15.80;99.90
20915;DHT22;10617;52.032;5.298;2022-07-23T02:55:42;15.80;99.90
20915;DHT22;10617;52.032;5.298;2022-07-23T03:09:50;15.70;99.90
20915;DHT22;10617;52.032;5.298;2022-07-23T03:13:52;15.60;99.90
20915;DHT22;10617;52.032;5.298;2022-07-23T03:17:54;15.60;99.90
20915;DHT22;10617;52.032;5.298;2022-07-23T03:21:55;15.50;99.90
20915;DHT22;10617;52.032;5.298;2022-07-23T03:25:57;15.50;99.90
20915;DHT22;10617;52.032;5.298;2022-07-23T03:29:59;15.50;99.90
20915;DHT22;10617;52.032;5.298;2022-07-23T03:34:01;15.40;99.90
20915;DHT22;10617;52.032;5.298;2022-07-23T03:38:02;15.40;99.90
20915;DHT22;10617;52.032;5.298;2022-07-23T03:52:07;15.30;99.90
20915;DHT22;10617;52.032;5.298;2022-07-23T03:56:09;15.20;99.90
20915;DHT22;10617;52.032;5.298;2022-07-23T04:00:11;15.10;99.90
20915;DHT22;10617;52.032;5.298;2022-07-23T04:04:14;15.10;99.90
20915;DHT22;10617;52.032;5.298;2022-07-23T04:08:16;15.10;99.90
20915;DHT22;10617;52.032;5.298;2022-07-23T04:12:17;15.10;99.90
20915;DHT22;10617;52.032;5.298;2022-07-23T04:16:19;15.10;99.90
20915;DHT22;10617;52.032;5.298;2022-07-23T04:20:21;15.10;99.90
20915;DHT22;10617;52.032;5.298;2022-07-23T04:24:23;15.10;99.90
20915;DHT22;10617;52.032;5.298;2022-07-23T04:28:25;15.10;99.90
20915;DHT22;10617;52.032;5.298;2022-07-23T04:32:26;15.10;99.90
20915;DHT22;10617;52.032;5.298;2022-07-23T04:36:28;15.10;99.90
20915;DHT22;10617;52.032;5.298;2022-07-23T04:45:33;15.10;99.90
20915;DHT22;10617;52.032;5.298;2022-07-23T04:49:35;15.20;99.90
20915;DHT22;10617;52.032;5.298;2022-07-23T05:03:44;15.40;99.90
20915;DHT22;10617;52.032;5.298;2022-07-23T05:07:46;15.50;99.90
20915;DHT22;10617;52.032;5.298;2022-07-23T05:11:48;15.50;99.90
20915;DHT22;10617;52.032;5.298;2022-07-23T05:15:49;15.50;99.90
20915;DHT22;10617;52.032;5.298;2022-07-23T05:19:51;15.60;99.90
20915;DHT22;10617;52.032;5.298;2022-07-23T05:23:58;15.60;99.90
20915;DHT22;10617;52.032;5.298;2022-07-23T05:28:00;15.70;99.90
20915;DHT22;10617;52.032;5.298;2022-07-23T05:32:02;15.80;99.90
20915;DHT22;10617;52.032;5.298;2022-07-23T05:36:04;15.90;99.90
20915;DHT22;10617;52.032;5.298;2022-07-23T05:40:06;16.00;99.90
20915;DHT22;10617;52.032;5.298;2022-07-23T05:44:09;16.10;99.90
20915;DHT22;10617;52.032;5.298;2022-07-23T05:48:10;16.20;99.90
20915;DHT22;10617;52.032;5.298;2022-07-23T05:52:12;16.30;99.90
20915;DHT22;10617;52.032;5.298;2022-07-23T05:56:14;16.40;99.90
20915;DHT22;10617;52.032;5.298;2022-07-23T06:00:15;16.50;99.90
20915;DHT22;10617;52.032;5.298;2022-07-23T06:04:17;16.60;99.90
20915;DHT22;10617;52.032;5.298;2022-07-23T06:08:19;16.70;99.90
20915;DHT22;10617;52.032;5.298;2022-07-23T06:12:20;16.80;99.90
20915;DHT22;10617;52.032;5.298;2022-07-23T06:16:22;16.90;99.90
20915;DHT22;10617;52.032;5.298;2022-07-23T06:30:37;17.30;99.90
20915;DHT22;10617;52.032;5.298;2022-07-23T06:34:39;17.40;99.90
20915;DHT22;10617;52.032;5.298;2022-07-23T06:38:44;17.40;99.90
20915;DHT22;10617;52.032;5.298;2022-07-23T06:42:45;17.60;99.90
20915;DHT22;10617;52.032;5.298;2022-07-23T06:46:47;17.60;99.90
20915;DHT22;10617;52.032;5.298;2022-07-23T06:50:49;17.60;99.90
20915;DHT22;10617;52.032;5.298;2022-07-23T06:54:51;17.70;99.90
20915;DHT22;10617;52.032;5.298;2022-07-23T06:58:52;17.80;99.90
20915;DHT22;10617;52.032;5.298;2022-07-23T07:02:54;17.90;99.90
20915;DHT22;10617;52.032;5.298;2022-07-23T07:06:56;17.90;99.90
20915;DHT22;10617;52.032;5.298;2022-07-23T07:10:58;18.00;99.90
20915;DHT22;10617;52.032;5.298;2022-07-23T07:15:00;18.10;99.90
20915;DHT22;10617;52.032;5.298;2022-07-23T07:19:01;18.20;99.90
20915;DHT22;10617;52.032;5.298;2022-07-23T07:23:04;18.40;99.90
20915;DHT22;10617;52.032;5.298;2022-07-23T07:27:05;18.40;99.90
20915;DHT22;10617;52.032;5.298;2022-07-23T07:31:07;18.50;99.90
20915;DHT22;10617;52.032;5.298;2022-07-23T07:35:09;18.50;99.90
20915;DHT22;10617;52.032;5.298;2022-07-23T07:39:10;18.60;99.90
20915;DHT22;10617;52.032;5.298;2022-07-23T07:43:12;18.70;99.90
20915;DHT22;10617;52.032;5.298;2022-07-23T07:47:14;18.80;99.90
20915;DHT22;10617;52.032;5.298;2022-07-23T07:51:16;18.90;99.90
20915;DHT22;10617;52.032;5.298;2022-07-23T07:55:18;19.00;99.90
20915;DHT22;10617;52.032;5.298;2022-07-23T07:59:20;19.10;99.90
20915;DHT22;10617;52.032;5.298;2022-07-23T08:03:21;19.10;99.90
20915;DHT22;10617;52.032;5.298;2022-07-23T08:07:23;19.10;99.90
20915;DHT22;10617;52.032;5.298;2022-07-23T08:11:25;19.20;99.90
20915;DHT22;10617;52.032;5.298;2022-07-23T08:15:27;19.20;99.90
20915;DHT22;10617;52.032;5.298;2022-07-23T08:19:29;19.20;99.90
20915;DHT22;10617;52.032;5.298;2022-07-23T08:23:31;19.20;99.90
20915;DHT22;10617;52.032;5.298;2022-07-23T08:27:32;19.20;99.90
20915;DHT22;10617;52.032;5.298;2022-07-23T08:31:34;19.20;99.90
20915;DHT22;10617;52.032;5.298;2022-07-23T08:35:46;19.30;99.90
20915;DHT22;10617;52.032;5.298;2022-07-23T08:39:48;19.40;99.90
20915;DHT22;10617;52.032;5.298;2022-07-23T08:43:49;19.50;99.90
20915;DHT22;10617;52.032;5.298;2022-07-23T08:52:54;19.60;99.90
20915;DHT22;10617;52.032;5.298;2022-07-23T09:17:14;19.90;99.90
20915;DHT22;10617;52.032;5.298;2022-07-23T09:21:23;19.80;99.90
20915;DHT22;10617;52.032;5.298;2022-07-23T09:25:25;19.80;99.90
20915;DHT22;10617;52.032;5.298;2022-07-23T09:29:27;19.90;99.90
20915;DHT22;10617;52.032;5.298;2022-07-23T09:33:28;19.90;99.90
20915;DHT22;10617;52.032;5.298;2022-07-23T09:37:31;20.00;99.90
20915;DHT22;10617;52.032;5.298;2022-07-23T09:41:40;20.10;99.90
20915;DHT22;10617;52.032;5.298;2022-07-23T09:45:42;20.20;99.90
20915;DHT22;10617;52.032;5.298;2022-07-23T09:49:57;20.30;99.90
20915;DHT22;10617;52.032;5.298;2022-07-23T09:53:59;20.30;99.90
20915;DHT22;10617;52.032;5.298;2022-07-23T09:58:01;20.40;99.90
20915;DHT22;10617;52.032;5.298;2022-07-23T10:02:03;20.40;99.90
20915;DHT22;10617;52.032;5.298;2022-07-23T10:06:07;20.40;99.90
20915;DHT22;10617;52.032;5.298;2022-07-23T10:10:09;20.50;99.90
20915;DHT22;10617;52.032;5.298;2022-07-23T10:14:11;20.50;99.90
20915;DHT22;10617;52.032;5.298;2022-07-23T10:18:13;20.60;99.90
20915;DHT22;10617;52.032;5.298;2022-07-23T10:22:19;20.70;99.90
20915;DHT22;10617;52.032;5.298;2022-07-23T10:26:24;20.70;99.90
20915;DHT22;10617;52.032;5.298;2022-07-23T10:40:35;20.90;99.90
20915;DHT22;10617;52.032;5.298;2022-07-23T10:44:46;21.00;99.90
20915;DHT22;10617;52.032;5.298;2022-07-23T10:49:15;21.00;99.90
20915;DHT22;10617;52.032;5.298;2022-07-23T10:53:16;21.10;99.90
20915;DHT22;10617;52.032;5.298;2022-07-23T10:57:19;21.20;99.90
20915;DHT22;10617;52.032;5.298;2022-07-23T11:01:34;21.20;99.90
20915;DHT22;10617;52.032;5.298;2022-07-23T11:05:40;21.30;99.90
20915;DHT22;10617;52.032;5.298;2022-07-23T11:09:44;21.30;99.90
20915;DHT22;10617;52.032;5.298;2022-07-23T11:13:48;21.40;99.90
20915;DHT22;10617;52.032;5.298;2022-07-23T11:17:58;21.50;99.90
20915;DHT22;10617;52.032;5.298;2022-07-23T11:22:01;21.50;99.90
20915;DHT22;10617;52.032;5.298;2022-07-23T11:26:04;21.60;99.90
20915;DHT22;10617;52.032;5.298;2022-07-23T11:30:10;21.70;99.90
20915;DHT22;10617;52.032;5.298;2022-07-23T11:38:35;21.80;99.90
20915;DHT22;10617;52.032;5.298;2022-07-23T11:42:39;22.00;99.90
20915;DHT22;10617;52.032;5.298;2022-07-23T11:46:51;22.10;99.90
20915;DHT22;10617;52.032;5.298;2022-07-23T11:50:55;22.20;99.90
20915;DHT22;10617;52.032;5.298;2022-07-23T11:54:59;22.20;99.90
20915;DHT22;10617;52.032;5.298;2022-07-23T11:59:00;22.30;99.90
20915;DHT22;10617;52.032;5.298;2022-07-23T12:03:02;22.30;99.90
20915;DHT22;10617;52.032;5.298;2022-07-23T12:07:05;22.40;99.90
20915;DHT22;10617;52.032;5.298;2022-07-23T12:11:23;22.50;99.90
20915;DHT22;10617;52.032;5.298;2022-07-23T12:15:27;22.50;99.90
20915;DHT22;10617;52.032;5.298;2022-07-23T12:19:30;22.60;99.90
20915;DHT22;10617;52.032;5.298;2022-07-23T12:23:32;22.60;99.90
20915;DHT22;10617;52.032;5.298;2022-07-23T12:27:34;22.60;99.90
20915;DHT22;10617;52.032;5.298;2022-07-23T12:31:35;22.60;99.90
20915;DHT22;10617;52.032;5.298;2022-07-23T12:35:40;22.60;99.90
20915;DHT22;10617;52.032;5.298;2022-07-23T12:45:08;22.80;99.90
20915;DHT22;10617;52.032;5.298;2022-07-23T12:49:08;22.80;99.90
20915;DHT22;10617;52.032;5.298;2022-07-23T12:58:17;22.90;99.90
20915;DHT22;10617;52.032;5.298;2022-07-23T13:02:19;23.00;99.90
20915;DHT22;10617;52.032;5.298;2022-07-23T13:06:22;23.00;99.90
20915;DHT22;10617;52.032;5.298;2022-07-23T13:10:24;23.10;99.90
20915;DHT22;10617;52.032;5.298;2022-07-23T13:14:25;23.20;99.90
20915;DHT22;10617;52.032;5.298;2022-07-23T13:18:28;23.30;99.90
20915;DHT22;10617;52.032;5.298;2022-07-23T13:22:29;23.30;99.90
20915;DHT22;10617;52.032;5.298;2022-07-23T13:26:31;23.40;99.90
20915;DHT22;10617;52.032;5.298;2022-07-23T13:30:33;23.40;99.90
20915;DHT22;10617;52.032;5.298;2022-07-23T13:34:35;23.40;99.90
20915;DHT22;10617;52.032;5.298;2022-07-23T13:38:36;23.50;99.90
20915;DHT22;10617;52.032;5.298;2022-07-23T13:42:38;23.50;99.90
20915;DHT22;10617;52.032;5.298;2022-07-23T13:46:40;23.60;99.90
20915;DHT22;10617;52.032;5.298;2022-07-23T13:55:45;23.70;99.90
20915;DHT22;10617;52.032;5.298;2022-07-23T13:59:49;23.80;99.90
20915;DHT22;10617;52.032;5.298;2022-07-23T14:03:53;23.80;99.90
20915;DHT22;10617;52.032;5.298;2022-07-23T14:07:54;23.80;99.90
20915;DHT22;10617;52.032;5.298;2022-07-23T14:11:56;23.80;99.90
20915;DHT22;10617;52.032;5.298;2022-07-23T14:15:58;23.80;99.90
20915;DHT22;10617;52.032;5.298;2022-07-23T14:19:59;23.90;99.90
20915;DHT22;10617;52.032;5.298;2022-07-23T14:29:05;24.10;99.90
20915;DHT22;10617;52.032;5.298;2022-07-23T14:33:07;24.20;99.90
20915;DHT22;10617;52.032;5.298;2022-07-23T14:37:09;24.40;99.90
20915;DHT22;10617;52.032;5.298;2022-07-23T14:41:11;24.50;99.90
20915;DHT22;10617;52.032;5.298;2022-07-23T14:45:13;24.70;99.90
20915;DHT22;10617;52.032;5.298;2022-07-23T14:49:15;24.80;99.90
20915;DHT22;10617;52.032;5.298;2022-07-23T14:53:16;24.80;99.90
20915;DHT22;10617;52.032;5.298;2022-07-23T14:57:23;24.90;99.90
20915;DHT22;10617;52.032;5.298;2022-07-23T15:01:27;25.10;99.90
20915;DHT22;10617;52.032;5.298;2022-07-23T15:05:29;25.20;99.90
20915;DHT22;10617;52.032;5.298;2022-07-23T15:09:31;25.20;99.90
20915;DHT22;10617;52.032;5.298;2022-07-23T15:13:33;25.10;99.90
20915;DHT22;10617;52.032;5.298;2022-07-23T15:17:35;25.00;99.90
20915;DHT22;10617;52.032;5.298;2022-07-23T15:21:36;25.00;99.90
20915;DHT22;10617;52.032;5.298;2022-07-23T15:25:38;25.10;99.90
20915;DHT22;10617;52.032;5.298;2022-07-23T15:29:40;25.10;99.90
20915;DHT22;10617;52.032;5.298;2022-07-23T15:33:41;25.00;99.90
20915;DHT22;10617;52.032;5.298;2022-07-23T15:37:43;24.90;99.90
20915;DHT22;10617;52.032;5.298;2022-07-23T15:41:45;25.00;99.90
20915;DHT22;10617;52.032;5.298;2022-07-23T15:45:47;25.00;99.90
20915;DHT22;10617;52.032;5.298;2022-07-23T15:49:49;25.00;99.90
20915;DHT22;10617;52.032;5.298;2022-07-23T15:53:51;25.00;99.90
20915;DHT22;10617;52.032;5.298;2022-07-23T15:57:52;25.00;99.90
20915;DHT22;10617;52.032;5.298;2022-07-23T16:01:54;25.10;99.90
20915;DHT22;10617;52.032;5.298;2022-07-23T16:05:56;25.10;99.90
20915;DHT22;10617;52.032;5.298;2022-07-23T16:09:57;25.50;99.90
20915;DHT22;10617;52.032;5.298;2022-07-23T16:13:59;25.90;99.90
20915;DHT22;10617;52.032;5.298;2022-07-23T16:18:01;26.30;99.90
20915;DHT22;10617;52.032;5.298;2022-07-23T16:22:03;26.50;99.90
20915;DHT22;10617;52.032;5.298;2022-07-23T16:26:04;26.80;99.90
20915;DHT22;10617;52.032;5.298;2022-07-23T16:30:08;27.20;99.90
20915;DHT22;10617;52.032;5.298;2022-07-23T16:34:10;27.50;99.90
20915;DHT22;10617;52.032;5.298;2022-07-23T16:38:12;27.80;99.90
20915;DHT22;10617;52.032;5.298;2022-07-23T16:42:14;28.10;99.90
20915;DHT22;10617;52.032;5.298;2022-07-23T16:46:16;28.20;99.90
20915;DHT22;10617;52.032;5.298;2022-07-23T16:50:18;28.10;99.90
20915;DHT22;10617;52.032;5.298;2022-07-23T16:54:20;28.00;99.90
20915;DHT22;10617;52.032;5.298;2022-07-23T16:58:22;28.10;99.90
20915;DHT22;10617;52.032;5.298;2022-07-23T17:02:23;28.20;99.90
20915;DHT22;10617;52.032;5.298;2022-07-23T17:06:25;28.20;99.90
20915;DHT22;10617;52.032;5.298;2022-07-23T17:10:27;28.20;99.90
20915;DHT22;10617;52.032;5.298;2022-07-23T17:14:29;28.20;99.90
20915;DHT22;10617;52.032;5.298;2022-07-23T17:18:31;27.90;99.90
20915;DHT22;10617;52.032;5.298;2022-07-23T17:22:33;27.50;99.90
20915;DHT22;10617;52.032;5.298;2022-07-23T17:26:35;27.20;99.90
20915;DHT22;10617;52.032;5.298;2022-07-23T17:30:38;26.90;99.90
20915;DHT22;10617;52.032;5.298;2022-07-23T17:34:40;26.70;99.90
20915;DHT22;10617;52.032;5.298;2022-07-23T17:38:42;26.60;99.90
20915;DHT22;10617;52.032;5.298;2022-07-23T17:58:51;26.10;99.90
20915;DHT22;10617;52.032;5.298;2022-07-23T18:02:53;26.00;99.90
20915;DHT22;10617;52.032;5.298;2022-07-23T18:06:55;25.90;99.90
20915;DHT22;10617;52.032;5.298;2022-07-23T18:10:57;25.90;99.90
20915;DHT22;10617;52.032;5.298;2022-07-23T18:14:59;25.90;99.90
20915;DHT22;10617;52.032;5.298;2022-07-23T18:19:07;25.80;99.90
20915;DHT22;10617;52.032;5.298;2022-07-23T18:23:09;25.80;99.90
20915;DHT22;10617;52.032;5.298;2022-07-23T18:27:11;25.70;99.90
20915;DHT22;10617;52.032;5.298;2022-07-23T18:31:13;25.70;99.90
20915;DHT22;10617;52.032;5.298;2022-07-23T18:35:17;25.60;99.90
20915;DHT22;10617;52.032;5.298;2022-07-23T18:39:18;25.60;99.90
20915;DHT22;10617;52.032;5.298;2022-07-23T18:43:20;25.50;99.90
20915;DHT22;10617;52.032;5.298;2022-07-23T18:47:22;25.50;99.90
20915;DHT22;10617;52.032;5.298;2022-07-23T18:51:24;25.30;99.90
20915;DHT22;10617;52.032;5.298;2022-07-23T18:55:27;25.20;99.90
20915;DHT22;10617;52.032;5.298;2022-07-23T18:59:29;25.10;99.90
20915;DHT22;10617;52.032;5.298;2022-07-23T19:03:31;24.90;99.90
20915;DHT22;10617;52.032;5.298;2022-07-23T19:07:32;24.80;99.90
20915;DHT22;10617;52.032;5.298;2022-07-23T19:11:34;24.70;99.90
20915;DHT22;10617;52.032;5.298;2022-07-23T19:15:36;24.60;99.90
20915;DHT22;10617;52.032;5.298;2022-07-23T19:19:37;24.40;99.90
20915;DHT22;10617;52.032;5.298;2022-07-23T19:23:39;24.30;99.90
20915;DHT22;10617;52.032;5.298;2022-07-23T19:27:41;24.20;99.90
20915;DHT22;10617;52.032;5.298;2022-07-23T19:31:42;24.00;99.90
20915;DHT22;10617;52.032;5.298;2022-07-23T19:35:44;23.90;99.90
20915;DHT22;10617;52.032;5.298;2022-07-23T19:39:48;23.80;99.90
20915;DHT22;10617;52.032;5.298;2022-07-23T19:43:50;23.70;99.90
20915;DHT22;10617;52.032;5.298;2022-07-23T19:47:51;23.50;99.90
20915;DHT22;10617;52.032;5.298;2022-07-23T19:51:55;23.40;99.90
20915;DHT22;10617;52.032;5.298;2022-07-23T20:01:00;23.20;99.90
20915;DHT22;10617;52.032;5.298;2022-07-23T20:05:02;23.00;99.90
20915;DHT22;10617;52.032;5.298;2022-07-23T20:09:05;22.90;99.90
20915;DHT22;10617;52.032;5.298;2022-07-23T20:13:07;22.80;99.90
20915;DHT22;10617;52.032;5.298;2022-07-23T20:17:08;22.80;99.90
20915;DHT22;10617;52.032;5.298;2022-07-23T20:21:10;22.70;99.90
20915;DHT22;10617;52.032;5.298;2022-07-23T20:25:12;22.60;99.90
20915;DHT22;10617;52.032;5.298;2022-07-23T20:29:14;22.50;99.90
20915;DHT22;10617;52.032;5.298;2022-07-23T20:33:17;22.50;99.90
20915;DHT22;10617;52.032;5.298;2022-07-23T20:37:18;22.40;99.90
20915;DHT22;10617;52.032;5.298;2022-07-23T20:41:20;22.30;99.90
20915;DHT22;10617;52.032;5.298;2022-07-23T20:45:22;22.30;99.90
20915;DHT22;10617;52.032;5.298;2022-07-23T20:49:23;22.20;99.90
20915;DHT22;10617;52.032;5.298;2022-07-23T20:53:25;22.20;99.90
20915;DHT22;10617;52.032;5.298;2022-07-23T20:57:27;22.10;99.90
20915;DHT22;10617;52.032;5.298;2022-07-23T21:01:30;22.00;99.90
20915;DHT22;10617;52.032;5.298;2022-07-23T21:05:31;21.90;99.90
20915;DHT22;10617;52.032;5.298;2022-07-23T21:09:33;21.90;99.90
20915;DHT22;10617;52.032;5.298;2022-07-23T21:13:35;21.80;99.90
20915;DHT22;10617;52.032;5.298;2022-07-23T21:17:36;21.70;99.90
20915;DHT22;10617;52.032;5.298;2022-07-23T21:21:45;21.60;99.90
20915;DHT22;10617;52.032;5.298;2022-07-23T21:25:46;21.60;99.90
20915;DHT22;10617;52.032;5.298;2022-07-23T21:30:11;21.50;99.90
20915;DHT22;10617;52.032;5.298;2022-07-23T21:34:13;21.40;99.90
20915;DHT22;10617;52.032;5.298;2022-07-23T21:38:15;21.40;99.90
20915;DHT22;10617;52.032;5.298;2022-07-23T21:42:16;21.30;99.90
20915;DHT22;10617;52.032;5.298;2022-07-23T21:46:22;21.20;99.90
20915;DHT22;10617;52.032;5.298;2022-07-23T21:50:24;21.20;99.90
20915;DHT22;10617;52.032;5.298;2022-07-23T21:54:26;21.10;99.90
20915;DHT22;10617;52.032;5.298;2022-07-23T21:58:28;21.00;99.90
20915;DHT22;10617;52.032;5.298;2022-07-23T22:02:29;20.90;99.90
20915;DHT22;10617;52.032;5.298;2022-07-23T22:06:31;20.90;99.90
20915;DHT22;10617;52.032;5.298;2022-07-23T22:10:33;20.80;99.90
20915;DHT22;10617;52.032;5.298;2022-07-23T22:14:35;20.80;99.90
20915;DHT22;10617;52.032;5.298;2022-07-23T22:18:37;20.70;99.90
20915;DHT22;10617;52.032;5.298;2022-07-23T22:22:44;20.70;99.90
20915;DHT22;10617;52.032;5.298;2022-07-23T22:26:46;20.60;99.90
20915;DHT22;10617;52.032;5.298;2022-07-23T22:30:48;20.60;99.90
20915;DHT22;10617;52.032;5.298;2022-07-23T22:34:51;20.50;99.90
20915;DHT22;10617;52.032;5.298;2022-07-23T22:38:52;20.40;99.90
20915;DHT22;10617;52.032;5.298;2022-07-23T22:42:54;20.40;99.90
20915;DHT22;10617;52.032;5.298;2022-07-23T22:46:56;20.30;99.90
20915;DHT22;10617;52.032;5.298;2022-07-23T22:50:57;20.30;99.90
20915;DHT22;10617;52.032;5.298;2022-07-23T22:54:59;20.20;99.90
20915;DHT22;10617;52.032;5.298;2022-07-23T22:59:01;20.20;99.90
20915;DHT22;10617;52.032;5.298;2022-07-23T23:03:22;20.20;99.90
20915;DHT22;10617;52.032;5.298;2022-07-23T23:07:24;20.10;99.90
20915;DHT22;10617;52.032;5.298;2022-07-23T23:11:26;20.10;99.90
20915;DHT22;10617;52.032;5.298;2022-07-23T23:15:27;20.00;99.90
20915;DHT22;10617;52.032;5.298;2022-07-23T23:19:29;20.00;99.90
20915;DHT22;10617;52.032;5.298;2022-07-23T23:23:31;20.00;99.90
20915;DHT22;10617;52.032;5.298;2022-07-23T23:27:32;19.90;99.90
20915;DHT22;10617;52.032;5.298;2022-07-23T23:31:34;19.90;99.90
20915;DHT22;10617;52.032;5.298;2022-07-23T23:35:36;19.80;99.90
20915;DHT22;10617;52.032;5.298;2022-07-23T23:39:38;19.80;99.90
20915;DHT22;10617;52.032;5.298;2022-07-23T23:43:40;19.80;99.90
20915;DHT22;10617;52.032;5.298;2022-07-23T23:47:41;19.70;99.90
20915;DHT22;10617;52.032;5.298;2022-07-23T23:51:43;19.70;99.90
20915;DHT22;10617;52.032;5.298;2022-07-23T23:55:45;19.60;99.90
